sensor_id;sensor_type;location;lat;lon;timestamp;temperature;humidity
3208;DHT22;1616;52.394;9.756;2023-02-10T00:01:31;4.70;1.00
3208;DHT22;1616;52.394;9.756;2023-02-10T00:03:57;4.70;1.00
3208;DHT22;1616;52.394;9.756;2023-02-10T00:06:24;4.70;1.00
3208;DHT22;1616;52.394;9.756;2023-02-10T00:08:55;4.70;1.00
3208;DHT22;1616;52.394;9.756;2023-02-10T00:11:21;4.60;1.00
3208;DHT22;1616;52.394;9.756;2023-02-10T00:14:11;4.60;1.00
3208;DHT22;1616;52.394;9.756;2023-02-10T00:16:36;4.60;1.00
3208;DHT22;1616;52.394;9.756;2023-02-10T00:19:02;4.60;1.00
3208;DHT22;1616;52.394;9.756;2023-02-10T00:21:28;4.60;1.00
3208;DHT22;1616;52.394;9.756;2023-02-10T00:23:54;4.50;1.00
3208;DHT22;1616;52.394;9.756;2023-02-10T00:26:19;4.50;1.00
3208;DHT22;1616;52.394;9.756;2023-02-10T00:28:45;4.50;1.00
3208;DHT22;1616;52.394;9.756;2023-02-10T00:31:13;4.50;1.00
3208;DHT22;1616;52.394;9.756;2023-02-10T00:33:40;4.50;1.00
3208;DHT22;1616;52.394;9.756;2023-02-10T00:36:07;4.60;1.00
3208;DHT22;1616;52.394;9.756;2023-02-10T00:38:33;4.50;1.00
3208;DHT22;1616;52.394;9.756;2023-02-10T00:41:04;4.50;1.00
3208;DHT22;1616;52.394;9.756;2023-02-10T00:43:30;4.50;1.00
3208;DHT22;1616;52.394;9.756;2023-02-10T00:45:56;4.50;1.00
3208;DHT22;1616;52.394;9.756;2023-02-10T00:48:22;4.50;1.00
3208;DHT22;1616;52.394;9.756;2023-02-10T00:50:47;4.50;1.00
3208;DHT22;1616;52.394;9.756;2023-02-10T00:53:13;4.50;1.00
3208;DHT22;1616;52.394;9.756;2023-02-10T00:55:38;4.50;1.00
3208;DHT22;1616;52.394;9.756;2023-02-10T00:58:04;4.50;1.00
3208;DHT22;1616;52.394;9.756;2023-02-10T01:00:30;4.50;1.00
3208;DHT22;1616;52.394;9.756;2023-02-10T01:02:55;4.50;1.00
3208;DHT22;1616;52.394;9.756;2023-02-10T01:05:21;4.60;1.00
3208;DHT22;1616;52.394;9.756;2023-02-10T01:07:46;4.60;1.00
3208;DHT22;1616;52.394;9.756;2023-02-10T01:10:12;4.60;1.00
3208;DHT22;1616;52.394;9.756;2023-02-10T01:12:38;4.60;1.00
3208;DHT22;1616;52.394;9.756;2023-02-10T01:15:04;4.60;1.00
3208;DHT22;1616;52.394;9.756;2023-02-10T01:17:30;4.60;1.00
3208;DHT22;1616;52.394;9.756;2023-02-10T01:19:55;4.60;1.00
3208;DHT22;1616;52.394;9.756;2023-02-10T01:22:21;4.50;1.00
3208;DHT22;1616;52.394;9.756;2023-02-10T01:24:47;4.60;1.00
3208;DHT22;1616;52.394;9.756;2023-02-10T01:27:13;4.60;1.00
3208;DHT22;1616;52.394;9.756;2023-02-10T01:29:38;4.60;1.00
3208;DHT22;1616;52.394;9.756;2023-02-10T01:32:04;4.70;1.00
3208;DHT22;1616;52.394;9.756;2023-02-10T01:34:29;4.60;1.00
3208;DHT22;1616;52.394;9.756;2023-02-10T01:36:55;4.60;1.00
3208;DHT22;1616;52.394;9.756;2023-02-10T01:39:20;4.60;1.00
3208;DHT22;1616;52.394;9.756;2023-02-10T01:41:46;4.60;1.00
3208;DHT22;1616;52.394;9.756;2023-02-10T01:46:48;4.60;1.00
3208;DHT22;1616;52.394;9.756;2023-02-10T01:49:17;4.60;1.00
3208;DHT22;1616;52.394;9.756;2023-02-10T01:51:56;4.60;1.00
3208;DHT22;1616;52.394;9.756;2023-02-10T01:54:30;4.60;1.00
3208;DHT22;1616;52.394;9.756;2023-02-10T01:56:57;4.50;1.00
3208;DHT22;1616;52.394;9.756;2023-02-10T01:59:26;4.50;1.00
3208;DHT22;1616;52.394;9.756;2023-02-10T02:01:52;4.40;1.00
3208;DHT22;1616;52.394;9.756;2023-02-10T02:04:18;4.30;1.00
3208;DHT22;1616;52.394;9.756;2023-02-10T02:06:44;4.30;1.00
3208;DHT22;1616;52.394;9.756;2023-02-10T02:09:11;4.20;1.00
3208;DHT22;1616;52.394;9.756;2023-02-10T02:12:04;4.20;1.00
3208;DHT22;1616;52.394;9.756;2023-02-10T02:14:56;4.20;1.00
3208;DHT22;1616;52.394;9.756;2023-02-10T02:17:38;4.20;1.00
3208;DHT22;1616;52.394;9.756;2023-02-10T02:23:22;4.30;1.00
3208;DHT22;1616;52.394;9.756;2023-02-10T02:28:48;4.40;1.00
3208;DHT22;1616;52.394;9.756;2023-02-10T02:31:39;4.40;1.00
3208;DHT22;1616;52.394;9.756;2023-02-10T02:34:30;4.40;1.00
3208;DHT22;1616;52.394;9.756;2023-02-10T02:37:15;4.50;1.00
3208;DHT22;1616;52.394;9.756;2023-02-10T02:39:42;4.50;1.00
3208;DHT22;1616;52.394;9.756;2023-02-10T02:42:18;4.50;1.00
3208;DHT22;1616;52.394;9.756;2023-02-10T02:45:10;4.50;1.00
3208;DHT22;1616;52.394;9.756;2023-02-10T02:50:37;4.60;1.00
3208;DHT22;1616;52.394;9.756;2023-02-10T02:53:32;4.50;1.00
3208;DHT22;1616;52.394;9.756;2023-02-10T02:56:09;4.60;1.00
3208;DHT22;1616;52.394;9.756;2023-02-10T02:58:56;4.60;1.00
3208;DHT22;1616;52.394;9.756;2023-02-10T03:01:52;4.60;1.00
3208;DHT22;1616;52.394;9.756;2023-02-10T03:04:20;4.60;1.00
3208;DHT22;1616;52.394;9.756;2023-02-10T03:06:46;4.50;1.00
3208;DHT22;1616;52.394;9.756;2023-02-10T03:09:12;4.60;1.00
3208;DHT22;1616;52.394;9.756;2023-02-10T03:11:38;4.60;1.00
3208;DHT22;1616;52.394;9.756;2023-02-10T03:14:03;4.60;1.00
3208;DHT22;1616;52.394;9.756;2023-02-10T03:16:29;4.60;1.00
3208;DHT22;1616;52.394;9.756;2023-02-10T03:18:54;4.60;1.00
3208;DHT22;1616;52.394;9.756;2023-02-10T03:21:20;4.60;1.00
3208;DHT22;1616;52.394;9.756;2023-02-10T03:23:45;4.60;1.00
3208;DHT22;1616;52.394;9.756;2023-02-10T03:26:11;4.70;1.00
3208;DHT22;1616;52.394;9.756;2023-02-10T03:28:37;4.70;1.00
3208;DHT22;1616;52.394;9.756;2023-02-10T03:31:04;4.70;1.00
3208;DHT22;1616;52.394;9.756;2023-02-10T03:33:30;4.70;1.00
3208;DHT22;1616;52.394;9.756;2023-02-10T03:35:56;4.80;1.00
3208;DHT22;1616;52.394;9.756;2023-02-10T03:38:24;4.80;1.00
3208;DHT22;1616;52.394;9.756;2023-02-10T03:40:52;4.80;1.00
3208;DHT22;1616;52.394;9.756;2023-02-10T03:43:19;4.80;1.00
3208;DHT22;1616;52.394;9.756;2023-02-10T03:45:44;4.80;1.00
3208;DHT22;1616;52.394;9.756;2023-02-10T03:48:10;4.80;1.00
3208;DHT22;1616;52.394;9.756;2023-02-10T03:50:36;4.90;1.00
3208;DHT22;1616;52.394;9.756;2023-02-10T03:53:02;4.80;1.00
3208;DHT22;1616;52.394;9.756;2023-02-10T03:55:28;4.80;1.00
3208;DHT22;1616;52.394;9.756;2023-02-10T03:57:54;4.90;1.00
3208;DHT22;1616;52.394;9.756;2023-02-10T04:00:20;4.90;1.00
3208;DHT22;1616;52.394;9.756;2023-02-10T04:02:46;4.90;1.00
3208;DHT22;1616;52.394;9.756;2023-02-10T04:05:12;4.90;1.00
3208;DHT22;1616;52.394;9.756;2023-02-10T04:07:37;4.90;1.00
3208;DHT22;1616;52.394;9.756;2023-02-10T04:10:04;4.90;1.00
3208;DHT22;1616;52.394;9.756;2023-02-10T04:12:31;5.00;1.00
3208;DHT22;1616;52.394;9.756;2023-02-10T04:14:57;5.00;1.00
3208;DHT22;1616;52.394;9.756;2023-02-10T04:17:23;5.00;1.00
3208;DHT22;1616;52.394;9.756;2023-02-10T04:19:48;5.00;1.00
3208;DHT22;1616;52.394;9.756;2023-02-10T04:22:14;5.00;1.00
3208;DHT22;1616;52.394;9.756;2023-02-10T04:24:40;5.00;1.00
3208;DHT22;1616;52.394;9.756;2023-02-10T04:27:06;5.00;1.00
3208;DHT22;1616;52.394;9.756;2023-02-10T04:29:31;5.00;1.00
3208;DHT22;1616;52.394;9.756;2023-02-10T04:31:59;4.90;1.00
3208;DHT22;1616;52.394;9.756;2023-02-10T04:34:25;5.00;1.00
3208;DHT22;1616;52.394;9.756;2023-02-10T04:36:50;4.90;1.00
3208;DHT22;1616;52.394;9.756;2023-02-10T04:39:16;4.90;1.00
3208;DHT22;1616;52.394;9.756;2023-02-10T04:41:42;4.90;1.00
3208;DHT22;1616;52.394;9.756;2023-02-10T04:44:07;5.00;1.00
3208;DHT22;1616;52.394;9.756;2023-02-10T04:46:33;4.90;1.00
3208;DHT22;1616;52.394;9.756;2023-02-10T04:48:59;4.90;1.00
3208;DHT22;1616;52.394;9.756;2023-02-10T04:51:24;4.80;1.00
3208;DHT22;1616;52.394;9.756;2023-02-10T04:53:50;4.90;1.00
3208;DHT22;1616;52.394;9.756;2023-02-10T04:56:16;4.80;1.00
3208;DHT22;1616;52.394;9.756;2023-02-10T04:58:42;4.90;1.00
3208;DHT22;1616;52.394;9.756;2023-02-10T05:01:08;4.90;1.00
3208;DHT22;1616;52.394;9.756;2023-02-10T05:03:34;4.90;1.00
3208;DHT22;1616;52.394;9.756;2023-02-10T05:05:59;4.90;1.00
3208;DHT22;1616;52.394;9.756;2023-02-10T05:08:30;4.90;1.00
3208;DHT22;1616;52.394;9.756;2023-02-10T05:10:55;4.90;1.00
3208;DHT22;1616;52.394;9.756;2023-02-10T05:13:21;4.90;1.00
3208;DHT22;1616;52.394;9.756;2023-02-10T05:15:47;5.00;1.00
3208;DHT22;1616;52.394;9.756;2023-02-10T05:18:14;4.90;1.00
3208;DHT22;1616;52.394;9.756;2023-02-10T05:20:40;4.90;1.00
3208;DHT22;1616;52.394;9.756;2023-02-10T05:23:05;4.90;1.00
3208;DHT22;1616;52.394;9.756;2023-02-10T05:25:34;4.90;1.00
3208;DHT22;1616;52.394;9.756;2023-02-10T05:28:00;4.90;1.00
3208;DHT22;1616;52.394;9.756;2023-02-10T05:30:26;4.80;1.00
3208;DHT22;1616;52.394;9.756;2023-02-10T05:32:51;4.90;1.00
3208;DHT22;1616;52.394;9.756;2023-02-10T05:35:17;4.90;1.00
3208;DHT22;1616;52.394;9.756;2023-02-10T05:37:43;4.90;1.00
3208;DHT22;1616;52.394;9.756;2023-02-10T05:40:10;5.00;1.00
3208;DHT22;1616;52.394;9.756;2023-02-10T05:42:36;4.90;1.00
3208;DHT22;1616;52.394;9.756;2023-02-10T05:45:01;4.80;1.00
3208;DHT22;1616;52.394;9.756;2023-02-10T05:47:27;4.80;1.00
3208;DHT22;1616;52.394;9.756;2023-02-10T05:49:53;4.70;1.00
3208;DHT22;1616;52.394;9.756;2023-02-10T05:52:18;4.80;1.00
3208;DHT22;1616;52.394;9.756;2023-02-10T05:54:44;4.70;1.00
3208;DHT22;1616;52.394;9.756;2023-02-10T05:57:10;4.70;1.00
3208;DHT22;1616;52.394;9.756;2023-02-10T05:59:36;4.60;1.00
3208;DHT22;1616;52.394;9.756;2023-02-10T06:02:01;4.60;1.00
3208;DHT22;1616;52.394;9.756;2023-02-10T06:04:27;4.60;1.00
3208;DHT22;1616;52.394;9.756;2023-02-10T06:06:52;4.60;1.00
3208;DHT22;1616;52.394;9.756;2023-02-10T06:09:20;4.50;1.00
3208;DHT22;1616;52.394;9.756;2023-02-10T06:11:50;4.50;1.00
3208;DHT22;1616;52.394;9.756;2023-02-10T06:14:16;4.30;1.00
3208;DHT22;1616;52.394;9.756;2023-02-10T06:16:42;4.30;1.00
3208;DHT22;1616;52.394;9.756;2023-02-10T06:19:08;4.30;1.00
3208;DHT22;1616;52.394;9.756;2023-02-10T06:21:33;4.20;1.00
3208;DHT22;1616;52.394;9.756;2023-02-10T06:23:59;4.20;1.00
3208;DHT22;1616;52.394;9.756;2023-02-10T06:26:25;4.10;1.00
3208;DHT22;1616;52.394;9.756;2023-02-10T06:28:54;4.00;1.00
3208;DHT22;1616;52.394;9.756;2023-02-10T06:31:19;4.00;1.00
3208;DHT22;1616;52.394;9.756;2023-02-10T06:33:45;3.80;1.00
3208;DHT22;1616;52.394;9.756;2023-02-10T06:36:11;3.90;1.00
3208;DHT22;1616;52.394;9.756;2023-02-10T06:38:38;3.90;1.00
3208;DHT22;1616;52.394;9.756;2023-02-10T06:41:04;3.70;1.00
3208;DHT22;1616;52.394;9.756;2023-02-10T06:43:30;3.80;1.00
3208;DHT22;1616;52.394;9.756;2023-02-10T06:45:56;3.80;1.00
3208;DHT22;1616;52.394;9.756;2023-02-10T06:48:22;3.70;1.00
3208;DHT22;1616;52.394;9.756;2023-02-10T06:50:48;3.80;1.00
3208;DHT22;1616;52.394;9.756;2023-02-10T06:53:14;3.80;1.00
3208;DHT22;1616;52.394;9.756;2023-02-10T06:55:39;3.90;1.00
3208;DHT22;1616;52.394;9.756;2023-02-10T06:58:05;3.80;1.00
3208;DHT22;1616;52.394;9.756;2023-02-10T07:00:30;3.80;1.00
3208;DHT22;1616;52.394;9.756;2023-02-10T07:02:58;3.80;1.00
3208;DHT22;1616;52.394;9.756;2023-02-10T07:05:24;3.80;1.00
3208;DHT22;1616;52.394;9.756;2023-02-10T07:07:50;3.80;1.00
3208;DHT22;1616;52.394;9.756;2023-02-10T07:10:17;3.90;1.00
3208;DHT22;1616;52.394;9.756;2023-02-10T07:12:43;3.90;1.00
3208;DHT22;1616;52.394;9.756;2023-02-10T07:15:09;4.00;1.00
3208;DHT22;1616;52.394;9.756;2023-02-10T07:17:35;4.10;1.00
3208;DHT22;1616;52.394;9.756;2023-02-10T07:20:03;4.10;1.00
3208;DHT22;1616;52.394;9.756;2023-02-10T07:22:28;4.20;1.00
3208;DHT22;1616;52.394;9.756;2023-02-10T07:24:54;4.30;1.00
3208;DHT22;1616;52.394;9.756;2023-02-10T07:27:19;4.30;1.00
3208;DHT22;1616;52.394;9.756;2023-02-10T07:29:45;4.30;1.00
3208;DHT22;1616;52.394;9.756;2023-02-10T07:32:12;4.30;1.00
3208;DHT22;1616;52.394;9.756;2023-02-10T07:34:39;4.40;1.00
3208;DHT22;1616;52.394;9.756;2023-02-10T07:37:06;4.40;1.00
3208;DHT22;1616;52.394;9.756;2023-02-10T07:39:32;4.40;1.00
3208;DHT22;1616;52.394;9.756;2023-02-10T07:41:58;4.50;1.00
3208;DHT22;1616;52.394;9.756;2023-02-10T07:44:23;4.50;1.00
3208;DHT22;1616;52.394;9.756;2023-02-10T07:46:52;4.60;1.00
3208;DHT22;1616;52.394;9.756;2023-02-10T07:49:18;4.70;1.00
3208;DHT22;1616;52.394;9.756;2023-02-10T07:51:47;4.80;1.00
3208;DHT22;1616;52.394;9.756;2023-02-10T07:54:13;4.90;1.00
3208;DHT22;1616;52.394;9.756;2023-02-10T07:56:39;5.00;1.00
3208;DHT22;1616;52.394;9.756;2023-02-10T07:59:04;5.10;1.00
3208;DHT22;1616;52.394;9.756;2023-02-10T08:01:30;5.20;1.00
3208;DHT22;1616;52.394;9.756;2023-02-10T08:03:56;5.30;1.00
3208;DHT22;1616;52.394;9.756;2023-02-10T08:06:26;5.30;1.00
3208;DHT22;1616;52.394;9.756;2023-02-10T08:08:52;5.30;1.00
3208;DHT22;1616;52.394;9.756;2023-02-10T08:11:17;5.40;1.00
3208;DHT22;1616;52.394;9.756;2023-02-10T08:13:44;5.50;1.00
3208;DHT22;1616;52.394;9.756;2023-02-10T08:16:10;5.50;1.00
3208;DHT22;1616;52.394;9.756;2023-02-10T08:18:40;5.50;1.00
3208;DHT22;1616;52.394;9.756;2023-02-10T08:21:07;5.60;1.00
3208;DHT22;1616;52.394;9.756;2023-02-10T08:23:34;5.60;1.00
3208;DHT22;1616;52.394;9.756;2023-02-10T08:26:09;5.60;1.00
3208;DHT22;1616;52.394;9.756;2023-02-10T08:28:36;5.80;1.00
3208;DHT22;1616;52.394;9.756;2023-02-10T08:31:04;6.20;1.00
3208;DHT22;1616;52.394;9.756;2023-02-10T08:33:30;6.70;1.00
3208;DHT22;1616;52.394;9.756;2023-02-10T08:36:06;7.30;1.00
3208;DHT22;1616;52.394;9.756;2023-02-10T08:38:32;8.10;1.00
3208;DHT22;1616;52.394;9.756;2023-02-10T08:40:58;8.90;1.00
3208;DHT22;1616;52.394;9.756;2023-02-10T08:43:24;9.60;1.00
3208;DHT22;1616;52.394;9.756;2023-02-10T08:45:50;10.40;1.00
3208;DHT22;1616;52.394;9.756;2023-02-10T08:48:16;10.90;1.00
3208;DHT22;1616;52.394;9.756;2023-02-10T08:50:41;11.50;1.00
3208;DHT22;1616;52.394;9.756;2023-02-10T08:53:07;11.90;1.00
3208;DHT22;1616;52.394;9.756;2023-02-10T08:55:33;12.30;1.00
3208;DHT22;1616;52.394;9.756;2023-02-10T08:57:59;12.60;1.00
3208;DHT22;1616;52.394;9.756;2023-02-10T09:00:24;12.90;1.00
3208;DHT22;1616;52.394;9.756;2023-02-10T09:02:50;13.10;1.00
3208;DHT22;1616;52.394;9.756;2023-02-10T09:05:16;13.50;1.00
3208;DHT22;1616;52.394;9.756;2023-02-10T09:07:44;13.90;1.00
3208;DHT22;1616;52.394;9.756;2023-02-10T09:10:11;14.30;1.00
3208;DHT22;1616;52.394;9.756;2023-02-10T09:12:38;14.60;1.00
3208;DHT22;1616;52.394;9.756;2023-02-10T09:15:05;14.60;1.00
3208;DHT22;1616;52.394;9.756;2023-02-10T09:17:31;14.40;1.00
3208;DHT22;1616;52.394;9.756;2023-02-10T09:19:56;14.10;1.00
3208;DHT22;1616;52.394;9.756;2023-02-10T09:22:22;13.70;1.00
3208;DHT22;1616;52.394;9.756;2023-02-10T09:24:49;13.40;1.00
3208;DHT22;1616;52.394;9.756;2023-02-10T09:27:16;13.20;1.00
3208;DHT22;1616;52.394;9.756;2023-02-10T09:29:42;13.00;1.00
3208;DHT22;1616;52.394;9.756;2023-02-10T09:32:08;12.90;1.00
3208;DHT22;1616;52.394;9.756;2023-02-10T09:34:34;12.70;1.00
3208;DHT22;1616;52.394;9.756;2023-02-10T09:37:00;12.40;1.00
3208;DHT22;1616;52.394;9.756;2023-02-10T09:39:30;12.00;1.00
3208;DHT22;1616;52.394;9.756;2023-02-10T09:44:50;11.60;1.00
3208;DHT22;1616;52.394;9.756;2023-02-10T09:47:40;11.60;1.00
3208;DHT22;1616;52.394;9.756;2023-02-10T09:53:19;12.30;1.00
3208;DHT22;1616;52.394;9.756;2023-02-10T09:55:49;12.80;1.00
3208;DHT22;1616;52.394;9.756;2023-02-10T09:58:35;13.10;1.00
3208;DHT22;1616;52.394;9.756;2023-02-10T10:01:14;13.50;1.00
3208;DHT22;1616;52.394;9.756;2023-02-10T10:06:32;13.70;1.00
3208;DHT22;1616;52.394;9.756;2023-02-10T10:09:03;13.60;1.00
3208;DHT22;1616;52.394;9.756;2023-02-10T10:11:48;13.50;1.00
3208;DHT22;1616;52.394;9.756;2023-02-10T10:14:29;13.40;1.00
3208;DHT22;1616;52.394;9.756;2023-02-10T10:19:49;14.00;1.00
3208;DHT22;1616;52.394;9.756;2023-02-10T10:22:46;14.60;1.00
3208;DHT22;1616;52.394;9.756;2023-02-10T10:31:10;16.00;1.00
3208;DHT22;1616;52.394;9.756;2023-02-10T10:33:50;16.00;1.00
3208;DHT22;1616;52.394;9.756;2023-02-10T10:36:22;16.00;1.00
3208;DHT22;1616;52.394;9.756;2023-02-10T10:38:54;15.80;1.00
3208;DHT22;1616;52.394;9.756;2023-02-10T10:41:30;15.80;1.00
3208;DHT22;1616;52.394;9.756;2023-02-10T10:43:57;15.80;1.00
3208;DHT22;1616;52.394;9.756;2023-02-10T10:46:38;15.70;1.00
3208;DHT22;1616;52.394;9.756;2023-02-10T10:49:05;15.50;1.00
3208;DHT22;1616;52.394;9.756;2023-02-10T10:51:31;15.20;1.00
3208;DHT22;1616;52.394;9.756;2023-02-10T10:54:00;15.20;1.00
3208;DHT22;1616;52.394;9.756;2023-02-10T10:59:18;14.90;1.00
3208;DHT22;1616;52.394;9.756;2023-02-10T11:01:48;14.70;1.00
3208;DHT22;1616;52.394;9.756;2023-02-10T11:04:17;14.60;1.00
3208;DHT22;1616;52.394;9.756;2023-02-10T11:06:46;14.50;1.00
3208;DHT22;1616;52.394;9.756;2023-02-10T11:09:29;14.70;1.00
3208;DHT22;1616;52.394;9.756;2023-02-10T11:12:36;15.00;1.00
3208;DHT22;1616;52.394;9.756;2023-02-10T11:15:23;15.20;1.00
3208;DHT22;1616;52.394;9.756;2023-02-10T11:17:53;15.30;1.00
3208;DHT22;1616;52.394;9.756;2023-02-10T11:20:34;15.40;1.00
3208;DHT22;1616;52.394;9.756;2023-02-10T11:23:15;15.30;1.00
3208;DHT22;1616;52.394;9.756;2023-02-10T11:25:44;15.30;1.00
3208;DHT22;1616;52.394;9.756;2023-02-10T11:28:19;15.10;1.00
3208;DHT22;1616;52.394;9.756;2023-02-10T11:30:47;15.00;1.00
3208;DHT22;1616;52.394;9.756;2023-02-10T11:33:24;13.30;1.00
3208;DHT22;1616;52.394;9.756;2023-02-10T11:35:54;14.00;1.00
3208;DHT22;1616;52.394;9.756;2023-02-10T11:38:24;13.60;1.00
3208;DHT22;1616;52.394;9.756;2023-02-10T11:40:53;13.10;1.00
3208;DHT22;1616;52.394;9.756;2023-02-10T11:43:20;12.70;1.00
3208;DHT22;1616;52.394;9.756;2023-02-10T11:46:01;12.50;1.00
3208;DHT22;1616;52.394;9.756;2023-02-10T11:48:28;12.30;1.00
3208;DHT22;1616;52.394;9.756;2023-02-10T11:51:27;12.10;1.00
3208;DHT22;1616;52.394;9.756;2023-02-10T11:53:53;12.00;1.00
3208;DHT22;1616;52.394;9.756;2023-02-10T11:56:45;12.00;1.00
3208;DHT22;1616;52.394;9.756;2023-02-10T11:59:48;12.10;1.00
3208;DHT22;1616;52.394;9.756;2023-02-10T12:02:38;12.10;1.00
3208;DHT22;1616;52.394;9.756;2023-02-10T12:05:48;12.30;1.00
3208;DHT22;1616;52.394;9.756;2023-02-10T12:11:24;12.80;1.00
3208;DHT22;1616;52.394;9.756;2023-02-10T12:14:06;13.30;1.00
3208;DHT22;1616;52.394;9.756;2023-02-10T12:16:48;13.60;1.00
3208;DHT22;1616;52.394;9.756;2023-02-10T12:19:27;13.60;1.00
3208;DHT22;1616;52.394;9.756;2023-02-10T12:22:05;13.70;1.00
3208;DHT22;1616;52.394;9.756;2023-02-10T12:25:01;13.90;1.00
3208;DHT22;1616;52.394;9.756;2023-02-10T12:41:18;13.90;1.00
3208;DHT22;1616;52.394;9.756;2023-02-10T12:46:36;13.40;1.00
3208;DHT22;1616;52.394;9.756;2023-02-10T12:49:27;13.20;1.00
3208;DHT22;1616;52.394;9.756;2023-02-10T12:54:43;13.30;1.00
3208;DHT22;1616;52.394;9.756;2023-02-10T12:57:28;13.60;1.00
3208;DHT22;1616;52.394;9.756;2023-02-10T13:02:54;13.30;1.00
3208;DHT22;1616;52.394;9.756;2023-02-10T13:05:25;13.00;1.00
3208;DHT22;1616;52.394;9.756;2023-02-10T13:07:55;12.60;1.00
3208;DHT22;1616;52.394;9.756;2023-02-10T13:10:50;12.20;1.00
3208;DHT22;1616;52.394;9.756;2023-02-10T13:13:29;11.90;1.00
3208;DHT22;1616;52.394;9.756;2023-02-10T13:16:02;11.60;1.00
3208;DHT22;1616;52.394;9.756;2023-02-10T13:18:32;11.30;1.00
3208;DHT22;1616;52.394;9.756;2023-02-10T13:21:08;11.10;1.00
3208;DHT22;1616;52.394;9.756;2023-02-10T13:23:44;10.80;1.00
3208;DHT22;1616;52.394;9.756;2023-02-10T13:26:26;10.50;1.00
3208;DHT22;1616;52.394;9.756;2023-02-10T13:29:04;10.40;1.00
3208;DHT22;1616;52.394;9.756;2023-02-10T13:31:56;10.30;1.00
3208;DHT22;1616;52.394;9.756;2023-02-10T13:34:52;10.20;1.00
3208;DHT22;1616;52.394;9.756;2023-02-10T13:37:37;10.00;1.00
3208;DHT22;1616;52.394;9.756;2023-02-10T13:40:15;9.90;1.00
3208;DHT22;1616;52.394;9.756;2023-02-10T13:42:53;9.50;1.00
3208;DHT22;1616;52.394;9.756;2023-02-10T13:45:28;9.40;1.00
3208;DHT22;1616;52.394;9.756;2023-02-10T13:48:05;9.30;1.00
3208;DHT22;1616;52.394;9.756;2023-02-10T13:50:53;9.10;1.00
3208;DHT22;1616;52.394;9.756;2023-02-10T13:56:24;8.80;1.00
3208;DHT22;1616;52.394;9.756;2023-02-10T13:58:58;8.60;1.00
3208;DHT22;1616;52.394;9.756;2023-02-10T14:01:41;8.50;1.00
3208;DHT22;1616;52.394;9.756;2023-02-10T14:06:49;8.40;1.00
3208;DHT22;1616;52.394;9.756;2023-02-10T14:09:19;8.40;1.00
3208;DHT22;1616;52.394;9.756;2023-02-10T14:11:46;8.30;1.00
3208;DHT22;1616;52.394;9.756;2023-02-10T14:14:21;8.30;1.00
3208;DHT22;1616;52.394;9.756;2023-02-10T14:16:51;8.30;1.00
3208;DHT22;1616;52.394;9.756;2023-02-10T14:19:24;8.40;1.00
3208;DHT22;1616;52.394;9.756;2023-02-10T14:21:53;8.30;1.00
3208;DHT22;1616;52.394;9.756;2023-02-10T14:24:26;8.30;1.00
3208;DHT22;1616;52.394;9.756;2023-02-10T14:26:55;8.10;1.00
3208;DHT22;1616;52.394;9.756;2023-02-10T14:29:23;8.20;1.00
3208;DHT22;1616;52.394;9.756;2023-02-10T14:31:59;8.10;1.00
3208;DHT22;1616;52.394;9.756;2023-02-10T14:34:29;8.10;1.00
3208;DHT22;1616;52.394;9.756;2023-02-10T14:36:57;8.10;1.00
3208;DHT22;1616;52.394;9.756;2023-02-10T14:39:27;8.10;1.00
3208;DHT22;1616;52.394;9.756;2023-02-10T14:41:59;8.10;1.00
3208;DHT22;1616;52.394;9.756;2023-02-10T14:44:42;8.00;1.00
3208;DHT22;1616;52.394;9.756;2023-02-10T14:47:23;8.10;1.00
3208;DHT22;1616;52.394;9.756;2023-02-10T14:49:54;8.00;1.00
3208;DHT22;1616;52.394;9.756;2023-02-10T14:52:26;7.90;1.00
3208;DHT22;1616;52.394;9.756;2023-02-10T14:54:52;7.90;1.00
3208;DHT22;1616;52.394;9.756;2023-02-10T14:57:20;7.80;1.00
3208;DHT22;1616;52.394;9.756;2023-02-10T15:00:05;7.80;1.00
3208;DHT22;1616;52.394;9.756;2023-02-10T15:02:31;7.80;1.00
3208;DHT22;1616;52.394;9.756;2023-02-10T15:05:00;7.80;1.00
3208;DHT22;1616;52.394;9.756;2023-02-10T15:07:30;7.80;1.00
3208;DHT22;1616;52.394;9.756;2023-02-10T15:10:00;7.80;1.00
3208;DHT22;1616;52.394;9.756;2023-02-10T15:12:27;7.80;1.00
3208;DHT22;1616;52.394;9.756;2023-02-10T15:15:33;7.80;1.00
3208;DHT22;1616;52.394;9.756;2023-02-10T15:17:56;7.80;1.00
3208;DHT22;1616;52.394;9.756;2023-02-10T15:20:32;7.80;1.00
3208;DHT22;1616;52.394;9.756;2023-02-10T15:33:36;7.60;1.00
3208;DHT22;1616;52.394;9.756;2023-02-10T15:38:58;7.50;1.00
3208;DHT22;1616;52.394;9.756;2023-02-10T15:41:26;7.50;1.00
3208;DHT22;1616;52.394;9.756;2023-02-10T15:43:53;7.40;1.00
3208;DHT22;1616;52.394;9.756;2023-02-10T15:46:22;7.30;1.00
3208;DHT22;1616;52.394;9.756;2023-02-10T15:48:48;7.30;1.00
3208;DHT22;1616;52.394;9.756;2023-02-10T15:51:24;7.20;1.00
3208;DHT22;1616;52.394;9.756;2023-02-10T15:53:51;7.20;1.00
3208;DHT22;1616;52.394;9.756;2023-02-10T15:56:21;7.10;1.00
3208;DHT22;1616;52.394;9.756;2023-02-10T15:58:47;7.10;1.00
3208;DHT22;1616;52.394;9.756;2023-02-10T16:01:12;7.00;1.00
3208;DHT22;1616;52.394;9.756;2023-02-10T16:03:38;7.00;1.00
3208;DHT22;1616;52.394;9.756;2023-02-10T16:06:04;6.90;1.00
3208;DHT22;1616;52.394;9.756;2023-02-10T16:08:30;6.90;1.00
3208;DHT22;1616;52.394;9.756;2023-02-10T16:10:55;6.80;1.00
3208;DHT22;1616;52.394;9.756;2023-02-10T16:13:22;6.80;1.00
3208;DHT22;1616;52.394;9.756;2023-02-10T16:15:49;6.70;1.00
3208;DHT22;1616;52.394;9.756;2023-02-10T16:18:18;6.50;1.00
3208;DHT22;1616;52.394;9.756;2023-02-10T16:20:46;6.60;1.00
3208;DHT22;1616;52.394;9.756;2023-02-10T16:23:17;6.50;1.00
3208;DHT22;1616;52.394;9.756;2023-02-10T16:25:45;6.50;1.00
3208;DHT22;1616;52.394;9.756;2023-02-10T16:28:14;6.40;1.00
3208;DHT22;1616;52.394;9.756;2023-02-10T16:30:40;6.40;1.00
3208;DHT22;1616;52.394;9.756;2023-02-10T16:33:06;6.40;1.00
3208;DHT22;1616;52.394;9.756;2023-02-10T16:35:32;6.30;1.00
3208;DHT22;1616;52.394;9.756;2023-02-10T16:38:02;6.30;1.00
3208;DHT22;1616;52.394;9.756;2023-02-10T16:40:30;6.30;1.00
3208;DHT22;1616;52.394;9.756;2023-02-10T16:42:57;6.30;1.00
3208;DHT22;1616;52.394;9.756;2023-02-10T16:45:24;6.30;1.00
3208;DHT22;1616;52.394;9.756;2023-02-10T16:47:51;6.30;1.00
3208;DHT22;1616;52.394;9.756;2023-02-10T16:50:25;6.30;1.00
3208;DHT22;1616;52.394;9.756;2023-02-10T16:52:53;6.30;1.00
3208;DHT22;1616;52.394;9.756;2023-02-10T16:55:18;6.30;1.00
3208;DHT22;1616;52.394;9.756;2023-02-10T16:57:45;6.20;1.00
3208;DHT22;1616;52.394;9.756;2023-02-10T17:00:12;6.20;1.00
3208;DHT22;1616;52.394;9.756;2023-02-10T17:02:38;6.10;1.00
3208;DHT22;1616;52.394;9.756;2023-02-10T17:05:06;6.10;1.00
3208;DHT22;1616;52.394;9.756;2023-02-10T17:07:32;6.10;1.00
3208;DHT22;1616;52.394;9.756;2023-02-10T17:09:58;5.90;1.00
3208;DHT22;1616;52.394;9.756;2023-02-10T17:12:23;6.00;1.00
3208;DHT22;1616;52.394;9.756;2023-02-10T17:14:49;5.90;1.00
3208;DHT22;1616;52.394;9.756;2023-02-10T17:17:14;6.00;1.00
3208;DHT22;1616;52.394;9.756;2023-02-10T17:19:40;5.90;1.00
3208;DHT22;1616;52.394;9.756;2023-02-10T17:22:06;5.90;1.00
3208;DHT22;1616;52.394;9.756;2023-02-10T17:24:32;5.90;1.00
3208;DHT22;1616;52.394;9.756;2023-02-10T17:26:58;5.80;1.00
3208;DHT22;1616;52.394;9.756;2023-02-10T17:29:24;5.80;1.00
3208;DHT22;1616;52.394;9.756;2023-02-10T17:31:50;5.80;1.00
3208;DHT22;1616;52.394;9.756;2023-02-10T17:34:15;5.70;1.00
3208;DHT22;1616;52.394;9.756;2023-02-10T17:36:45;5.70;1.00
3208;DHT22;1616;52.394;9.756;2023-02-10T17:39:17;5.60;1.00
3208;DHT22;1616;52.394;9.756;2023-02-10T17:41:53;5.70;1.00
3208;DHT22;1616;52.394;9.756;2023-02-10T17:44:20;5.70;1.00
3208;DHT22;1616;52.394;9.756;2023-02-10T17:46:46;5.70;1.00
3208;DHT22;1616;52.394;9.756;2023-02-10T17:49:14;5.60;1.00
3208;DHT22;1616;52.394;9.756;2023-02-10T17:51:41;5.50;1.00
3208;DHT22;1616;52.394;9.756;2023-02-10T17:54:08;5.60;1.00
3208;DHT22;1616;52.394;9.756;2023-02-10T17:56:33;5.60;1.00
3208;DHT22;1616;52.394;9.756;2023-02-10T17:59:01;5.60;1.00
3208;DHT22;1616;52.394;9.756;2023-02-10T18:01:28;5.60;1.00
3208;DHT22;1616;52.394;9.756;2023-02-10T18:03:57;5.60;1.00